Terminal Aerodrome Forecast
Issued by NWS

Home | Current Version | Previous Version | Text Only | Print | Product List | Glossary On
Versions: 1 2 3 4 5 6 7 8 9 10 11 12
186
FTPA31 PHFO 272329
TAFHTO
TAF
PHTO 272329Z 2800/2824 10011KT P6SM SCT025 SCT050
     FM280500 25005KT P6SM SCT025 BKN045
     FM282100 10011KT P6SM SCT025 SCT050=

USA.gov is the U.S. government's official web portal to all federal, state and local government web resources and services.